Time;durP1;ratioP1;P1;durP2;ratioP2;P2;SDS_P1;SDS_P2;PMS_P1;PMS_P2;Temp;Humidity;BMP_temperature;BMP_pressure;BME280_temperature;BME280_humidity;BME280_pressure;Samples;Min_cycle;Max_cycle;Signal;HPM_P1;HPM_P2
2021/12/25 00:00:19;;;;;;;0.43;0.00;;;;;;;-4.79;40.61;101066.81;4945603;28;20038;-69
2021/12/25 00:02:44;;;;;;;0.63;0.10;;;;;;;-4.90;40.83;101064.00;4976456;28;20108;-69
2021/12/25 00:05:12;;;;;;;0.47;0.08;;;;;;;-4.96;40.56;101074.88;4962472;28;20039;-69
2021/12/25 00:07:40;;;;;;;1.65;0.00;;;;;;;-4.87;40.58;101081.06;4975915;28;20038;-69
2021/12/25 00:10:07;;;;;;;2.45;0.00;;;;;;;-4.88;40.53;101085.31;4976380;28;20050;-69
2021/12/25 00:12:33;;;;;;;6.72;0.20;;;;;;;-4.92;40.65;101086.91;4975064;28;20068;-70
2021/12/25 00:14:59;;;;;;;5.20;0.38;;;;;;;-5.01;40.90;101088.34;4968182;28;20046;-69
2021/12/25 00:17:27;;;;;;;3.08;0.13;;;;;;;-5.11;41.23;101096.53;4960376;28;20038;-69
2021/12/25 00:19:53;;;;;;;0.50;0.08;;;;;;;-5.02;40.72;101094.25;4976806;28;20137;-70
2021/12/25 00:22:21;;;;;;;0.85;0.08;;;;;;;-5.11;40.83;101099.09;4976177;28;20500;-69
2021/12/25 00:24:47;;;;;;;1.15;0.00;;;;;;;-5.22;40.89;101107.28;4974238;28;20062;-69
2021/12/25 00:27:53;;;;;;;1.95;0.20;;;;;;;-5.08;40.99;101107.69;4976719;28;20030;-69
2021/12/25 00:35:01;;;;;;;1.88;0.20;;;;;;;-5.24;41.63;101108.91;4965846;28;20061;-69
2021/12/25 00:37:26;;;;;;;2.70;0.05;;;;;;;-5.23;41.83;101112.34;4974414;28;20034;-68
2021/12/25 00:39:54;;;;;;;14.00;0.20;;;;;;;-5.25;41.40;101114.84;4959982;28;20128;-68
2021/12/25 00:42:22;;;;;;;0.20;0.00;;;;;;;-5.30;42.14;101118.97;4961491;28;20137;-68
2021/12/25 00:44:48;;;;;;;4.70;0.10;;;;;;;-5.26;42.05;101120.78;4976561;28;20104;-68
2021/12/25 00:47:16;;;;;;;2.45;0.05;;;;;;;-5.25;41.86;101116.53;4977677;28;20042;-68
2021/12/25 00:49:42;;;;;;;3.70;0.00;;;;;;;-5.32;41.99;101118.03;4974421;28;20039;-67
2021/12/25 00:52:10;;;;;;;0.60;0.10;;;;;;;-5.27;42.17;101130.91;4962287;28;20035;-67
2021/12/25 00:54:35;;;;;;;4.03;0.10;;;;;;;-5.27;41.52;101126.69;4974135;28;20096;-68
2021/12/25 00:57:02;;;;;;;0.75;0.00;;;;;;;-5.15;41.06;101133.81;4978691;28;20448;-67
2021/12/25 00:59:29;;;;;;;0.98;0.20;;;;;;;-5.16;40.73;101134.66;4945491;28;20034;-68
2021/12/25 01:01:54;;;;;;;0.17;0.00;;;;;;;-5.21;40.66;101142.16;4977498;28;20038;-68
2021/12/25 01:04:20;;;;;;;2.83;0.03;;;;;;;-5.17;40.55;101140.53;4964313;28;20531;-67
2021/12/25 01:06:47;;;;;;;1.10;0.28;;;;;;;-5.21;40.65;101136.19;4960196;28;20452;-68
2021/12/25 01:09:15;;;;;;;10.13;0.25;;;;;;;-5.21;40.48;101142.16;4948694;28;20268;-68
2021/12/25 01:11:45;;;;;;;0.75;0.10;;;;;;;-5.47;40.94;101143.06;4968761;28;20441;-67
2021/12/25 01:14:24;;;;;;;0.50;0.10;;;;;;;-5.39;40.77;101146.72;4973224;28;20149;-68
2021/12/25 01:17:25;;;;;;;2.13;0.10;;;;;;;-5.46;40.68;101139.69;4960372;28;20045;-70
2021/12/25 01:30:47;;;;;;;2.28;0.10;;;;;;;-5.66;41.21;101159.44;4973321;28;20572;-69
2021/12/25 01:36:46;;;;;;;;;;;;;;;-5.59;41.06;101162.25;4975576;28;20042;-69
2021/12/25 01:48:34;;;;;;;0.68;0.00;;;;;;;-5.67;41.38;101176.41;4973509;28;20231;-69
2021/12/25 01:51:00;;;;;;;0.82;0.30;;;;;;;-5.78;42.10;101186.25;4976407;28;20034;-69
2021/12/25 01:53:26;;;;;;;0.73;0.35;;;;;;;-5.71;41.84;101189.00;4957632;28;20492;-69
2021/12/25 01:55:51;;;;;;;3.03;0.30;;;;;;;-5.71;41.81;101189.00;4974547;28;20556;-69
2021/12/25 01:58:18;;;;;;;0.40;0.10;;;;;;;-5.73;41.66;101201.66;4970845;28;20105;-69
2021/12/25 02:00:47;;;;;;;5.88;0.40;;;;;;;-5.74;41.83;101194.00;4939179;28;20106;-69
2021/12/25 02:03:16;;;;;;;1.80;0.00;;;;;;;-5.78;41.92;101193.03;4974651;28;20033;-69
2021/12/25 02:05:45;;;;;;;0.55;0.10;;;;;;;-5.80;42.35;101194.66;4965228;28;20056;-69
2021/12/25 02:08:15;;;;;;;0.28;0.10;;;;;;;-5.80;42.13;101189.56;4959638;28;20039;-69
2021/12/25 02:10:41;;;;;;;0.30;0.00;;;;;;;-5.84;42.23;101182.63;4972989;28;20491;-69
2021/12/25 02:13:09;;;;;;;0.68;0.20;;;;;;;-5.83;42.33;101190.34;4957755;28;20215;-69
2021/12/25 02:15:35;;;;;;;0.82;0.10;;;;;;;-5.90;42.34;101188.41;4970083;28;20041;-70
2021/12/25 02:23:31;;;;;;;2.00;0.10;;;;;;;-5.97;42.86;101177.16;4963099;28;20030;-69
2021/12/25 02:25:58;;;;;;;0.10;0.00;;;;;;;-5.84;42.50;101182.63;4957317;28;20408;-70
2021/12/25 02:28:26;;;;;;;0.98;0.15;;;;;;;-5.86;42.29;101184.28;4967172;28;20096;-69
2021/12/25 02:31:00;;;;;;;0.40;0.10;;;;;;;-5.90;42.59;101175.69;4958657;28;20521;-69
2021/12/25 02:33:29;;;;;;;0.05;0.00;;;;;;;-5.90;42.54;101187.56;4952712;28;20146;-69
2021/12/25 02:35:55;;;;;;;0.30;0.10;;;;;;;-5.85;42.12;101186.00;4973860;28;20757;-69
2021/12/25 02:38:21;;;;;;;0.40;0.10;;;;;;;-6.07;42.22;101190.38;4957679;28;20037;-69
2021/12/25 02:40:46;;;;;;;2.90;0.08;;;;;;;-5.78;41.51;101203.22;4955337;28;20436;-69
2021/12/25 02:43:15;;;;;;;0.35;0.03;;;;;;;-5.74;41.53;101202.50;4972886;28;20121;-67
2021/12/25 02:45:41;;;;;;;0.43;0.10;;;;;;;-5.72;41.30;101198.31;4987529;28;20041;-68
2021/12/25 02:48:10;;;;;;;0.32;0.10;;;;;;;-5.90;41.74;101203.69;4974227;28;20030;-67
2021/12/25 02:50:40;;;;;;;0.73;0.00;;;;;;;-5.87;41.89;101203.78;4971434;28;20049;-67
2021/12/25 02:53:10;;;;;;;0.30;0.00;;;;;;;-5.90;42.01;101207.91;4975242;28;20057;-67
2021/12/25 02:55:40;;;;;;;0.30;0.08;;;;;;;-6.02;42.04;101209.25;4972770;28;20121;-68
2021/12/25 02:58:06;;;;;;;0.57;0.03;;;;;;;-5.97;42.26;101212.81;4974783;28;20038;-67
2021/12/25 03:00:52;;;;;;;2.28;0.25;;;;;;;-6.03;42.28;101212.59;4972445;28;20625;-67
2021/12/25 03:03:19;;;;;;;0.38;0.08;;;;;;;-6.01;42.32;101221.16;4975014;28;20038;-68
2021/12/25 03:05:45;;;;;;;5.93;0.32;;;;;;;-6.02;42.26;101223.63;4987114;28;20029;-69
2021/12/25 03:08:13;;;;;;;3.90;0.10;;;;;;;-6.03;42.52;101217.69;4973515;28;20104;-68
2021/12/25 03:10:47;;;;;;;0.85;0.00;;;;;;;-6.12;42.74;101217.38;4985984;28;20559;-67
2021/12/25 03:15:45;;;;;;;0.20;0.00;;;;;;;-5.93;42.10;101217.97;4985806;28;20038;-67
2021/12/25 03:18:16;;;;;;;0.43;0.00;;;;;;;-6.00;42.11;101212.69;4989239;28;20038;-66
2021/12/25 03:20:46;;;;;;;3.17;0.10;;;;;;;-6.00;42.23;101211.81;4971041;28;20108;-68
2021/12/25 03:23:17;;;;;;;0.30;0.00;;;;;;;-6.03;42.01;101207.50;4975443;28;20039;-67
2021/12/25 03:25:46;;;;;;;0.20;0.00;;;;;;;-6.11;42.36;101208.91;4985649;28;20389;-67
2021/12/25 03:28:14;;;;;;;1.35;0.00;;;;;;;-6.26;42.77;101213.50;4974731;28;20033;-69
2021/12/25 03:30:40;;;;;;;0.25;0.00;;;;;;;-6.23;42.78;101211.91;4972258;28;20046;-69
2021/12/25 03:33:07;;;;;;;0.20;0.00;;;;;;;-6.11;42.11;101223.31;4973043;28;20035;-68
2021/12/25 03:35:36;;;;;;;0.32;0.20;;;;;;;-6.15;42.40;101216.38;4985389;28;20046;-68
2021/12/25 03:38:04;;;;;;;1.20;0.08;;;;;;;-6.15;42.56;101219.81;4987873;28;20057;-69
2021/12/25 03:40:29;;;;;;;1.00;0.10;;;;;;;-6.14;42.44;101219.00;4976745;28;20465;-68
2021/12/25 03:42:56;;;;;;;0.77;0.10;;;;;;;-6.16;42.29;101225.72;4972242;28;20532;-68
2021/12/25 03:45:22;;;;;;;2.65;0.10;;;;;;;-6.11;42.44;101218.22;4960446;28;20525;-68
2021/12/25 03:48:02;;;;;;;0.82;0.13;;;;;;;-6.20;42.58;101223.88;4988610;28;20323;-68
2021/12/25 03:58:28;;;;;;;0.40;0.10;;;;;;;-6.14;42.26;101233.41;4972891;28;20068;-68
2021/12/25 04:01:00;;;;;;;1.08;0.30;;;;;;;-6.18;42.14;101237.50;4968870;28;20120;-69
2021/12/25 04:03:43;;;;;;;0.00;0.00;;;;;;;-6.24;42.63;101238.19;4962292;28;20440;-70
2021/12/25 04:06:10;;;;;;;0.20;0.00;;;;;;;-6.18;42.60;101238.38;4987672;28;20031;-71
2021/12/25 04:08:43;;;;;;;0.30;0.00;;;;;;;-6.24;42.74;101242.38;4987334;28;20085;-70
2021/12/25 04:11:24;;;;;;;3.13;0.10;;;;;;;-6.22;42.70;101238.22;4972002;28;20032;-70
2021/12/25 04:13:50;;;;;;;0.75;0.10;;;;;;;-6.33;42.83;101239.50;4990100;28;21068;-69
2021/12/25 04:16:17;;;;;;;2.72;0.00;;;;;;;-6.30;42.95;101247.28;4973342;28;20405;-69
2021/12/25 04:18:43;;;;;;;0.80;0.10;;;;;;;-6.35;43.21;101238.59;4960657;28;20037;-69
2021/12/25 04:21:08;;;;;;;1.05;0.10;;;;;;;-6.34;43.04;101243.75;4979756;28;20026;-71
2021/12/25 04:23:38;;;;;;;2.15;0.20;;;;;;;-6.34;42.99;101245.44;4975307;28;20049;-69
2021/12/25 04:26:03;;;;;;;0.47;0.05;;;;;;;-6.38;43.24;101240.22;4978341;28;20030;-69
2021/12/25 04:28:39;;;;;;;0.40;0.00;;;;;;;-6.33;43.15;101248.03;4989559;28;20522;-69
2021/12/25 05:04:04;;;;;;;1.30;0.00;;;;;;;-6.11;42.80;101280.16;4968439;28;20053;-66
2021/12/25 05:06:37;;;;;;;1.13;0.20;;;;;;;-6.17;42.97;101277.44;4969817;28;20755;-66
2021/12/25 05:09:02;;;;;;;2.75;0.00;;;;;;;-6.17;42.54;101274.88;4985330;28;20054;-65
2021/12/25 05:11:28;;;;;;;1.55;0.10;;;;;;;-6.29;43.37;101275.28;4982300;28;20091;-66
2021/12/25 05:13:53;;;;;;;2.63;0.10;;;;;;;-6.34;43.36;101278.50;4980920;28;20046;-67
2021/12/25 05:16:28;;;;;;;0.82;0.03;;;;;;;-6.26;43.19;101279.66;4980406;28;20145;-65
2021/12/25 05:18:57;;;;;;;3.92;0.20;;;;;;;-6.26;43.07;101277.09;4980977;28;20366;-66
2021/12/25 05:21:23;;;;;;;0.90;0.17;;;;;;;-6.33;43.25;101278.56;4980695;28;20031;-65
2021/12/25 05:23:52;;;;;;;1.27;0.20;;;;;;;-6.40;43.39;101279.13;4933754;28;20043;-65
2021/12/25 05:26:19;;;;;;;0.13;0.00;;;;;;;-6.39;43.56;101279.19;4963589;28;20097;-65
2021/12/25 05:28:56;;;;;;;1.65;0.55;;;;;;;-6.39;43.91;101278.34;4956264;28;20047;-65
2021/12/25 05:31:22;;;;;;;1.60;0.30;;;;;;;-6.40;43.74;101287.66;4980378;28;20037;-66
2021/12/25 05:34:04;;;;;;;0.13;0.10;;;;;;;-6.51;44.37;101283.84;4933971;28;20047;-66
2021/12/25 05:36:45;;;;;;;1.05;0.10;;;;;;;-6.50;44.58;101289.78;4980469;28;20034;-67
2021/12/25 05:39:29;;;;;;;0.40;0.03;;;;;;;-6.45;44.24;101289.13;4948050;28;20098;-68
2021/12/25 05:41:55;;;;;;;2.95;0.10;;;;;;;-6.44;44.33;101290.03;4952713;28;20081;-66
2021/12/25 05:44:22;;;;;;;2.58;0.43;;;;;;;-6.44;44.20;101293.44;4949475;28;20513;-68
2021/12/25 05:47:08;;;;;;;0.08;0.00;;;;;;;-6.39;44.24;101291.91;4951856;28;20038;-67
2021/12/25 05:49:38;;;;;;;0.73;0.22;;;;;;;-6.64;44.61;101297.78;4950294;28;20049;-67
2021/12/25 05:52:26;;;;;;;1.38;0.10;;;;;;;-6.50;44.55;101292.34;4948721;28;20039;-65
2021/12/25 05:55:14;;;;;;;0.32;0.00;;;;;;;-6.51;44.48;101294.03;4954897;28;20533;-64
2021/12/25 05:57:59;;;;;;;1.95;0.10;;;;;;;-6.40;44.31;101291.84;4948087;28;20085;-66
2021/12/25 06:00:43;;;;;;;0.13;0.00;;;;;;;-6.41;44.18;101296.06;4947704;28;20077;-65
2021/12/25 06:03:09;;;;;;;1.25;0.10;;;;;;;-6.32;44.02;101297.22;4948131;28;20130;-64
2021/12/25 06:05:38;;;;;;;3.15;0.10;;;;;;;-6.32;43.83;101297.22;4976938;28;20327;-68
2021/12/25 06:08:04;;;;;;;1.10;0.20;;;;;;;-6.33;43.78;101301.47;4948528;28;20043;-65
2021/12/25 06:10:30;;;;;;;2.13;0.03;;;;;;;-6.32;43.76;101305.72;4949840;28;20039;-65
2021/12/25 06:12:58;;;;;;;1.20;0.10;;;;;;;-6.27;43.44;101304.19;4951399;28;20063;-66
2021/12/25 06:15:28;;;;;;;0.55;0.20;;;;;;;-6.20;43.30;101302.75;4979979;28;20102;-66
2021/12/25 06:17:57;;;;;;;0.65;0.10;;;;;;;-6.31;43.67;101297.25;4937321;28;20337;-63
2021/12/25 06:20:52;;;;;;;1.00;0.38;;;;;;;-6.35;43.89;101299.63;4952099;28;20046;-68
2021/12/25 06:23:36;;;;;;;2.47;0.20;;;;;;;-6.19;43.32;101312.13;4946464;28;20513;-68
2021/12/25 06:26:11;;;;;;;0.80;0.15;;;;;;;-6.27;43.21;101299.13;4952632;28;20041;-69
2021/12/25 06:29:05;;;;;;;3.70;0.55;;;;;;;-6.10;42.90;101306.50;4964923;28;20075;-68
2021/12/25 06:31:55;;;;;;;0.82;0.15;;;;;;;-6.11;42.53;101309.84;4947634;28;20054;-68
2021/12/25 06:34:51;;;;;;;0.75;0.65;;;;;;;-6.19;42.49;101307.03;4920123;28;20055;-68
2021/12/25 06:37:47;;;;;;;0.00;0.00;;;;;;;-6.26;43.11;101315.25;4947927;28;20034;-68
2021/12/25 06:40:26;;;;;;;0.77;0.20;;;;;;;-6.28;43.10;101307.56;4976324;28;20568;-67
2021/12/25 06:42:52;;;;;;;0.35;0.10;;;;;;;-6.22;42.96;101312.00;4944676;28;20118;-66
2021/12/25 06:45:18;;;;;;;0.70;0.10;;;;;;;-6.11;42.54;101304.75;4947508;28;20053;-68
2021/12/25 06:47:46;;;;;;;1.00;0.10;;;;;;;-6.10;42.45;101314.13;4949679;28;20042;-67
2021/12/25 06:50:26;;;;;;;0.95;0.10;;;;;;;-6.20;42.31;101318.00;4979307;28;20043;-68
2021/12/25 06:53:15;;;;;;;0.20;0.10;;;;;;;-6.19;42.52;101318.06;4940637;28;20039;-67
2021/12/25 06:56:06;;;;;;;0.30;0.10;;;;;;;-6.30;43.10;101318.50;4970222;28;20038;-68
2021/12/25 06:58:44;;;;;;;0.00;0.00;;;;;;;-6.46;43.27;101309.44;4948584;28;20105;-69
2021/12/25 07:01:10;;;;;;;0.65;0.10;;;;;;;-6.36;43.29;101323.38;4963360;28;20038;-69
2021/12/25 07:03:36;;;;;;;1.20;0.00;;;;;;;-6.21;42.94;101319.69;4979500;28;20039;-68
2021/12/25 07:06:23;;;;;;;0.88;0.05;;;;;;;-6.33;43.13;101318.38;4976588;28;20566;-67
2021/12/25 07:09:08;;;;;;;1.17;0.00;;;;;;;-6.14;42.54;101325.88;4979839;28;20248;-68
2021/12/25 07:11:52;;;;;;;0.80;0.03;;;;;;;-6.10;42.35;101329.41;4947623;28;20104;-68
2021/12/25 07:14:31;;;;;;;6.80;0.10;;;;;;;-6.12;42.61;101343.75;4945337;28;20050;-68
2021/12/25 07:17:22;;;;;;;1.23;0.10;;;;;;;-6.12;42.48;101341.22;4934069;28;20126;-69
2021/12/25 07:20:09;;;;;;;1.65;0.05;;;;;;;-6.07;42.29;101343.09;4946419;28;20035;-68
2021/12/25 07:22:53;;;;;;;5.50;0.25;;;;;;;-6.00;42.01;101344.16;4948551;28;20068;-68
2021/12/25 07:25:47;;;;;;;0.47;0.10;;;;;;;-6.10;42.21;101350.63;4954772;28;20043;-69
2021/12/25 07:28:22;;;;;;;0.20;0.00;;;;;;;-6.13;42.29;101352.19;4950272;28;20140;-68
2021/12/25 07:30:50;;;;;;;0.70;0.00;;;;;;;-6.04;42.17;101348.31;4947665;28;20600;-67
2021/12/25 07:33:19;;;;;;;0.57;0.03;;;;;;;-6.00;42.05;101355.22;4977865;28;20602;-68
2021/12/25 07:35:44;;;;;;;1.90;0.10;;;;;;;-6.06;42.39;101365.19;4948492;28;20031;-67
2021/12/25 07:38:10;;;;;;;1.00;0.10;;;;;;;-5.97;42.32;101360.44;4978746;28;20450;-68
2021/12/25 07:40:36;;;;;;;0.77;0.10;;;;;;;-6.01;42.08;101365.38;4978999;28;20408;-69
2021/12/25 07:43:02;;;;;;;1.13;0.20;;;;;;;-6.06;42.34;101364.31;4948817;28;20043;-69
2021/12/25 07:45:48;;;;;;;2.35;0.40;;;;;;;-6.12;42.61;101366.66;4945341;28;20697;-68
2021/12/25 07:48:18;;;;;;;3.30;0.25;;;;;;;-6.11;42.67;101370.91;4981465;28;20458;-69
2021/12/25 07:50:43;;;;;;;0.68;0.40;;;;;;;-6.10;42.54;101365.03;4950256;28;20043;-69
2021/12/25 07:53:10;;;;;;;0.63;0.10;;;;;;;-6.12;42.61;101374.28;4949280;28;20039;-69
2021/12/25 07:55:36;;;;;;;1.42;0.10;;;;;;;-6.24;42.79;101370.47;4948528;28;20331;-71
2021/12/25 07:58:05;;;;;;;6.15;0.90;;;;;;;-6.30;43.21;101379.56;4948739;28;20490;-70
2021/12/25 08:00:31;;;;;;;2.17;0.30;;;;;;;-6.33;43.38;101375.22;4948285;28;20347;-71
2021/12/25 08:02:59;;;;;;;1.55;0.35;;;;;;;-6.32;43.98;101373.53;4960534;28;20067;-69
2021/12/25 08:05:25;;;;;;;0.85;0.30;;;;;;;-6.17;43.62;101364.81;4950203;28;20104;-71
2021/12/25 08:07:56;;;;;;;0.20;0.10;;;;;;;-6.12;43.80;101384.47;4950061;28;20523;-69
2021/12/25 08:10:21;;;;;;;1.15;0.30;;;;;;;-6.13;43.47;101388.69;4950037;28;20046;-70
2021/12/25 08:12:49;;;;;;;2.22;0.40;;;;;;;-6.20;43.79;101391.78;4974529;28;20043;-70
2021/12/25 08:15:18;;;;;;;0.30;0.10;;;;;;;-6.01;43.92;101380.63;4953005;28;20039;-69
2021/12/25 08:17:44;;;;;;;2.78;0.25;;;;;;;-5.81;43.45;101396.63;4950239;28;20022;-70
2021/12/25 08:20:39;;;;;;;4.03;0.10;;;;;;;-5.70;43.09;101387.69;4932246;28;20047;-70
2021/12/25 08:23:24;;;;;;;1.02;0.30;;;;;;;-5.71;43.36;101392.72;4928216;28;20042;-69
2021/12/25 08:26:08;;;;;;;1.73;0.55;;;;;;;-5.66;43.30;101399.72;4974019;28;20035;-69
2021/12/25 08:28:52;;;;;;;3.50;0.30;;;;;;;-5.61;43.52;101399.88;4948691;28;20046;-70
2021/12/25 08:31:46;;;;;;;3.35;0.10;;;;;;;-5.67;43.59;101405.59;4945674;28;20054;-69
2021/12/25 08:34:44;;;;;;;0.88;0.20;;;;;;;-5.47;43.37;101411.41;4934436;28;20039;-69
2021/12/25 08:37:15;;;;;;;6.68;0.40;;;;;;;-5.47;43.55;101408.00;4957657;28;20026;-70
2021/12/25 08:39:41;;;;;;;0.90;0.15;;;;;;;-5.40;43.33;101409.94;4950926;28;20379;-70
2021/12/25 08:42:09;;;;;;;1.17;0.22;;;;;;;-5.44;43.30;101413.19;4952526;28;20153;-70
2021/12/25 08:44:52;;;;;;;1.70;0.38;;;;;;;-5.26;42.91;101413.84;4957396;28;20150;-69
2021/12/25 08:47:20;;;;;;;0.98;0.20;;;;;;;-5.08;42.40;101412.69;4951912;28;20043;-70
2021/12/25 08:49:47;;;;;;;0.68;0.20;;;;;;;-4.95;42.24;101413.16;4970723;28;20054;-70
2021/12/25 08:52:18;;;;;;;4.22;0.32;;;;;;;-4.16;40.51;101413.03;4953493;28;20038;-70
2021/12/25 08:54:44;;;;;;;2.67;0.10;;;;;;;-3.47;38.93;101415.81;4955052;28;20043;-70
2021/12/25 08:57:13;;;;;;;2.35;0.10;;;;;;;-2.99;37.92;101414.47;4958742;28;20034;-70
2021/12/25 08:59:40;;;;;;;0.68;0.20;;;;;;;-3.08;37.53;101415.09;4981977;28;20549;-69
2021/12/25 09:02:09;;;;;;;4.95;0.35;;;;;;;-3.13;38.20;101416.69;4953078;28;20042;-69
2021/12/25 09:04:40;;;;;;;1.05;0.40;;;;;;;-3.47;38.54;101415.81;4949172;28;20053;-69
2021/12/25 09:07:06;;;;;;;1.42;0.20;;;;;;;-3.95;39.29;101413.63;4959772;28;20041;-69
2021/12/25 09:09:36;;;;;;;2.13;0.30;;;;;;;-4.24;40.07;101414.47;4948728;28;20031;-70
2021/12/25 09:12:05;;;;;;;2.13;0.25;;;;;;;-4.32;40.74;101414.25;4949893;28;20124;-70
2021/12/25 09:14:30;;;;;;;2.00;0.57;;;;;;;-4.28;40.64;101415.19;4972265;28;20260;-70
2021/12/25 09:16:56;;;;;;;3.17;0.22;;;;;;;-4.52;41.34;101421.31;4962100;28;20062;-69
2021/12/25 09:19:21;;;;;;;1.00;0.32;;;;;;;-4.30;41.16;101421.13;4950481;28;20059;-70
2021/12/25 09:21:49;;;;;;;1.58;0.50;;;;;;;-4.22;40.92;101425.59;4949471;28;20435;-71
2021/12/25 09:24:15;;;;;;;3.80;0.47;;;;;;;-4.09;40.96;101432.81;4950990;28;20042;-70
2021/12/25 09:26:46;;;;;;;0.80;0.30;;;;;;;-3.95;40.75;101430.66;4951475;28;20039;-70
2021/12/25 09:29:11;;;;;;;1.10;0.50;;;;;;;-3.89;40.57;101435.94;4948541;28;20134;-71
2021/12/25 09:31:37;;;;;;;4.05;0.80;;;;;;;-3.84;41.06;101433.50;4948571;28;20037;-70
2021/12/25 09:34:05;;;;;;;0.52;0.25;;;;;;;-3.90;41.02;101440.19;4952930;28;20412;-69
2021/12/25 09:36:31;;;;;;;1.10;0.60;;;;;;;-3.59;40.33;101443.59;4958592;28;20806;-70
2021/12/25 09:38:59;;;;;;;4.22;1.20;;;;;;;-3.24;39.57;101438.56;4948314;28;20122;-69
2021/12/25 09:41:25;;;;;;;4.15;0.50;;;;;;;-3.06;39.42;101443.28;4949394;28;20038;-69
2021/12/25 09:43:50;;;;;;;1.30;0.60;;;;;;;-2.47;38.80;101435.31;4952309;28;20055;-69
2021/12/25 09:46:17;;;;;;;6.05;0.43;;;;;;;-2.45;37.52;101447.34;4984009;28;20035;-70
2021/12/25 09:48:44;;;;;;;1.98;0.45;;;;;;;-2.21;37.09;101443.59;4948055;28;20035;-71
2021/12/25 09:51:10;;;;;;;2.40;0.77;;;;;;;-2.11;37.62;101444.63;4979255;28;20042;-70
2021/12/25 09:53:38;;;;;;;1.77;0.63;;;;;;;-2.01;37.08;101446.56;4946663;28;20055;-71
2021/12/25 09:56:04;;;;;;;8.68;1.40;;;;;;;-1.83;36.85;101456.34;4947598;28;20066;-69
2021/12/25 09:58:30;;;;;;;5.32;0.80;;;;;;;-1.60;36.91;101451.66;4939192;28;20357;-70
2021/12/25 10:00:57;;;;;;;2.17;0.43;;;;;;;-1.66;35.98;101449.00;4949298;28;20039;-69
2021/12/25 10:03:44;;;;;;;6.88;0.40;;;;;;;-1.77;37.00;101442.81;4940193;28;20739;-70
2021/12/25 10:06:09;;;;;;;3.13;0.68;;;;;;;-1.71;37.06;101455.72;4947940;28;20035;-69
2021/12/25 10:08:40;;;;;;;3.80;0.57;;;;;;;-1.86;36.42;101451.16;4947201;28;20464;-69
2021/12/25 10:11:10;;;;;;;0.88;0.30;;;;;;;-2.07;36.71;101451.56;4949314;28;20039;-69
2021/12/25 10:13:40;;;;;;;3.30;0.40;;;;;;;-2.43;37.96;101450.78;4946015;28;20043;-70
2021/12/25 10:16:29;;;;;;;1.63;0.20;;;;;;;-2.67;38.45;101443.41;4949958;28;20458;-69
2021/12/25 10:19:12;;;;;;;0.85;0.20;;;;;;;-2.51;38.19;101448.88;4951113;28;20093;-70
2021/12/25 10:21:38;;;;;;;3.22;0.20;;;;;;;-2.39;37.89;101444.03;4948332;28;20033;-71
2021/12/25 10:24:07;;;;;;;6.07;0.30;;;;;;;-2.43;38.14;101437.97;4951258;28;20683;-71
2021/12/25 10:26:37;;;;;;;2.35;0.20;;;;;;;-2.30;37.65;101446.81;4940078;28;20492;-70
2021/12/25 10:29:22;;;;;;;0.50;0.20;;;;;;;-2.37;37.08;101450.06;4947209;28;20395;-71
2021/12/25 10:31:51;;;;;;;1.77;0.20;;;;;;;-2.15;37.59;101458.22;4948215;28;20039;-70
2021/12/25 10:34:21;;;;;;;1.10;0.95;;;;;;;-1.98;37.00;101443.22;4938832;28;20122;-70
2021/12/25 10:36:47;;;;;;;7.05;0.28;;;;;;;-2.19;37.17;101452.16;4947214;28;21103;-72
2021/12/25 10:39:17;;;;;;;1.10;0.40;;;;;;;-2.21;36.92;101449.56;4948205;28;20103;-71
2021/12/25 10:42:03;;;;;;;3.38;0.55;;;;;;;-2.15;36.95;101432.63;4946930;28;20117;-70
2021/12/25 10:44:38;;;;;;;3.80;0.55;;;;;;;-2.11;36.92;101439.50;4944984;28;20072;-70
2021/12/25 10:47:05;;;;;;;1.63;0.73;;;;;;;-2.43;37.03;101445.66;4954361;28;20049;-71
2021/12/25 10:49:44;;;;;;;1.58;0.10;;;;;;;-2.55;36.76;101442.81;4973908;28;20134;-72
2021/12/25 10:52:22;;;;;;;2.72;0.20;;;;;;;-2.44;37.15;101445.63;4945302;28;20039;-70
2021/12/25 10:55:01;;;;;;;1.95;0.25;;;;;;;-2.37;37.55;101433.84;4948073;28;20049;-71
2021/12/25 10:57:44;;;;;;;8.60;0.85;;;;;;;-2.28;37.26;101432.34;4958919;28;20138;-70
2021/12/25 11:00:21;;;;;;;7.63;0.50;;;;;;;-2.59;38.12;101429.91;4943360;28;20047;-70
2021/12/25 11:03:03;;;;;;;1.30;0.20;;;;;;;-2.45;37.65;101431.09;4933044;28;20133;-70
2021/12/25 11:05:35;;;;;;;6.00;0.38;;;;;;;-2.31;37.33;101432.28;4933497;28;20037;-70
2021/12/25 11:08:19;;;;;;;2.47;0.20;;;;;;;-2.09;36.38;101413.13;4933478;28;20177;-71
2021/12/25 11:10:44;;;;;;;2.00;0.40;;;;;;;-2.15;36.82;101417.25;4935486;28;20142;-72
2021/12/25 11:13:43;;;;;;;1.00;0.10;;;;;;;-2.29;36.62;101415.25;4961992;28;20550;-70
2021/12/25 11:16:11;;;;;;;6.35;0.35;;;;;;;-2.28;36.81;101409.28;4936428;28;20042;-70
2021/12/25 11:19:09;;;;;;;1.30;0.15;;;;;;;-1.97;37.00;101412.50;4963937;28;20088;-71
2021/12/25 11:21:44;;;;;;;2.38;0.50;;;;;;;-2.03;36.52;101417.50;4935932;28;20041;-72
2021/12/25 11:24:18;;;;;;;4.25;0.45;;;;;;;-1.78;36.32;101416.28;4933480;28;20343;-70
2021/12/25 11:26:50;;;;;;;3.95;0.20;;;;;;;-1.61;35.76;101416.63;4935548;28;20031;-71
2021/12/25 11:29:19;;;;;;;3.03;0.28;;;;;;;-1.71;35.79;101422.41;4938798;28;20255;-70
2021/12/25 11:31:47;;;;;;;4.25;0.10;;;;;;;-1.69;35.52;101418.16;4938488;28;20161;-71
2021/12/25 11:34:13;;;;;;;9.68;0.32;;;;;;;-1.62;35.61;101414.88;4937340;28;20031;-71
2021/12/25 11:36:48;;;;;;;0.98;0.03;;;;;;;-1.38;35.71;101424.75;4940737;28;20061;-71
2021/12/25 11:39:20;;;;;;;0.98;0.35;;;;;;;-1.38;35.66;101419.63;4937945;28;20432;-70
2021/12/25 11:41:47;;;;;;;2.85;0.10;;;;;;;-1.28;35.01;101420.66;4940486;28;20074;-72
2021/12/25 11:44:36;;;;;;;1.17;0.10;;;;;;;-1.09;35.44;101417.56;4939662;28;20035;-71
2021/12/25 11:47:03;;;;;;;3.53;0.15;;;;;;;-1.21;35.22;101420.78;4940172;28;20142;-72
2021/12/25 11:49:31;;;;;;;1.48;0.30;;;;;;;-1.25;35.01;101420.72;4938265;28;20625;-71
2021/12/25 11:52:26;;;;;;;3.17;0.20;;;;;;;-1.22;34.76;101429.34;4941788;28;20035;-71
2021/12/25 11:56:17;;;;;;;3.70;0.10;;;;;;;-1.25;35.37;101425.84;4927143;28;20047;-71
2021/12/25 11:57:52;;;;;;;1.35;0.45;;;;;;;-1.48;35.38;101418.59;4934560;28;20120;-69
2021/12/25 12:00:40;;;;;;;5.47;0.75;;;;;;;-1.66;35.44;101425.94;4937961;28;20031;-70
2021/12/25 12:03:06;;;;;;;3.50;1.05;;;;;;;-2.07;36.08;101410.56;4940890;28;20074;-71
2021/12/25 12:05:34;;;;;;;3.00;0.10;;;;;;;-2.01;36.10;101421.81;4942251;28;20030;-71
2021/12/25 12:08:03;;;;;;;0.75;0.10;;;;;;;-2.09;36.25;101419.91;4940012;28;20031;-70
2021/12/25 12:11:20;;;;;;;4.55;0.25;;;;;;;-2.02;36.84;101409.00;4852074;29;20574;-69
2021/12/25 12:14:26;;;;;;;0.80;0.10;;;;;;;-2.31;36.70;101411.78;4859120;29;20040;-70
2021/12/25 12:17:16;;;;;;;0.73;0.10;;;;;;;-2.47;37.24;101419.94;4934968;28;20050;-71
2021/12/25 12:19:52;;;;;;;0.47;0.10;;;;;;;-2.35;36.90;101425.34;4938719;28;20403;-70
2021/12/25 12:27:42;;;;;;;0.38;0.08;;;;;;;-2.05;37.07;101414.03;4937127;28;21549;-72
2021/12/25 12:30:13;;;;;;;1.95;0.10;;;;;;;-2.40;36.95;101416.72;4937359;28;20587;-72
2021/12/25 12:32:58;;;;;;;0.95;0.00;;;;;;;-2.49;37.53;101408.81;4936468;28;20481;-71
2021/12/25 12:35:26;;;;;;;2.97;0.10;;;;;;;-2.74;36.78;101418.47;4936896;28;20404;-71
2021/12/25 12:37:52;;;;;;;0.47;0.10;;;;;;;-2.51;36.55;101415.63;4938764;28;20753;-71
2021/12/25 12:40:23;;;;;;;0.55;0.10;;;;;;;-2.38;36.78;101407.38;4933660;28;20047;-70
2021/12/25 12:42:54;;;;;;;0.30;0.10;;;;;;;-2.26;36.44;101411.91;4919950;28;20245;-71
2021/12/25 12:45:25;;;;;;;0.20;0.08;;;;;;;-2.48;36.86;101408.00;4946028;28;20695;-70
2021/12/25 12:48:09;;;;;;;4.13;0.32;;;;;;;-2.23;36.74;101420.50;4967984;28;20031;-71
2021/12/25 12:50:37;;;;;;;0.35;0.10;;;;;;;-2.49;36.85;101416.47;4963632;28;20047;-70
2021/12/25 12:53:07;;;;;;;0.68;0.10;;;;;;;-2.34;36.45;101418.53;4939075;28;20039;-70
2021/12/25 12:55:35;;;;;;;0.63;0.00;;;;;;;-2.34;36.38;101418.53;4950398;28;20040;-69
2021/12/25 12:58:16;;;;;;;5.82;0.10;;;;;;;-2.33;36.04;101413.47;4936476;28;20054;-70
2021/12/25 13:01:03;;;;;;;1.33;0.45;;;;;;;-2.29;36.27;101416.94;4923703;28;20134;-72
2021/12/25 13:03:30;;;;;;;3.45;0.65;;;;;;;-2.41;36.61;101425.22;4930944;28;20049;-70
2021/12/25 13:06:03;;;;;;;0.68;0.10;;;;;;;-2.24;36.47;101417.91;4941347;28;20504;-72
2021/12/25 13:08:36;;;;;;;2.70;0.10;;;;;;;-2.06;36.17;101417.44;4934466;28;20038;-70
2021/12/25 13:11:18;;;;;;;1.20;0.10;;;;;;;-1.99;36.31;101423.56;4942364;28;20031;-70